Share

Neosho, MO

Rolling Meadows (KMONEOSH2) Elev 0 ft | 36.87 °N, 94.41 °W | Change Station

Current weather conditions updated 33 days ago

Partly Cloudy
Partly Cloudy
39 °F
Feels Like 39 °F
N
5
Wind Variable Wind from ENE
Gusts 5 mph
Sunrise 6:39 AM
Sunset 7:54 PM
Moon Waning Gibbous

Today is forecast to be Much Warmer than yesterday.

Pressure 30.24 in
Visibility 10.0 miles
Clouds Scattered Clouds 7000 ft
Dew Point 37 °F
Humidity 95%
Rainfall 0.00 in
Snow Depth Not available.
UV 0 out of 16
Pollen 9.20 out of 12
Air Quality Not available.
Flu Activity Sporadic
METAR KHFJ 180935Z AUTO 02004KT 10SM SCT070 05/03 A3024 RMK AO2

More Conditions Fewer Conditions

Pressure 30.24 in
Visibility 10.0 miles
Clouds Scattered Clouds 7000 ft
Dew Point 37 °F
Humidity 95%
Rainfall 0.00 in
Snow Depth Not available.
UV 0 out of 16
Pollen 9.20 out of 12
Air Quality Not available.
Flu Activity Sporadic
METAR KHFJ 180935Z AUTO 02004KT 10SM SCT070 05/03 A3024 RMK AO2

More Conditions Fewer Conditions

10-Day Forecast

Almanac

Astronomy

Apr. 18, 2014 Rise Set
Actual Time 6:39 AM CDT 7:54 PM CDT
Civil Twilight 6:12 AM CDT 8:21 PM CDT
Nautical Twilight 5:40 AM CDT 8:54 PM CDT
Astronomical Twilight 5:06 AM CDT 9:27 PM CDT
Moon 11:37 PM CDT 9:05 AM CDT
Length of Visible Light 14h 09m
Length of Day
13h 15m
Tomorrow will be 2m 13s longer.
Waning Gibbous, 89% of the Moon is Illuminated
Today
Waning Gibbous
Apr 22
Last Quarter
Apr 29
New
May 6
First Quarter
May 14
Full

Today's Extremes

State Highs State Lows

Community

  • SUNRISE THROUGH THE TREES.
    SUNRISE THROUGH THE TREES.
  • Dog Wood Blossoms
    Dog Wood Blossoms
  • Morning Light
    Morning Light
  • New Day
    New Day
  • Lake Michigan Sunrise
    Lake Michigan Sunrise

WunderPhotos

Upload Photos

1,702,300 photos uploaded!

WunderBlogs® & News

Nearby

Snow Depth

Station Depth Elevation
No new snow has been reported.

Coastal Water Temperatures

Place Temperature
No Stations Reporting

Earthquake Activity

City Distance Mag. Time & Date
No recent earthquake activity has been reported nearby.
Minimum magnitude displayed is 2.5.

Nearby Weather Stations

Station Location Temp. Windchill Dew Point Humidity Wind Precip. Elev Updated Type
NonFedAWOS NEOSHO AIRPORT , Neosho, MO 45 °F 42 °F 43 °F 93% NE  at  5 mph 0.00 in / hr 1254 ft 4:15 AM CDT MADIS
Mohaska, Joplin, MO 46.0 °F 46 °F 41 °F 83% NE  at  0.0 mph 0.00 in / hr 1037 ft 4:39 AM CDT Normal
Farm Road 2100, Wheaton, MO 41.4 °F 41 °F 39 °F 91% NNE  at  0.0 mph 0.00 in / hr 1335 ft 4:45 AM CDT Rapid Fire
the Wood, Reeds, MO 46.2 °F 46 °F 43 °F 88% SE  at  1.0 mph 0.00 in / hr 1086 ft 4:45 AM CDT Normal
Monett, MO 41.9 °F 42 °F 39 °F 90% North  at  0.2 mph 0.00 in / hr 1335 ft 4:45 AM CDT Normal

Show More Stations Show Fewer Stations

What do you think?

We're not finished. Please let us know what you like, what you don't like, and what you are still missing.